Shirley, United Kingdom
Current Conditions -  °F | °C
As of 11:20 AM on Tuesday 21 Oct 2014 (Local Time) from EGBB Reporting Station
Scattered Clouds Scattered Clouds  
Wind Chill: 12°   Ceiling: Unl
Heat Index: 12°   Visibility: 6mi
Dew Point:   Wind: 21mph
Humidity: 58%   Direction: 290°WNW
Pressure: 29.62"   Gusts: 33mph
Location:  52.41°N, 1.83°W
Report Text: EGBB 211020Z 29018G29KT 9999 FEW032 SCT038 12/04 Q1003
Loading
Personal Weather Stations






























Interactive Weather Map
Tropical Storm Tracking
New forecast layout! Learn more

10-Day Weather Forecast

Advertisements
Track Severe Weather on mobile